createdAt,value
2019-05-29T00:02:23.447Z,33.22
2019-05-29T00:04:55.094Z,33.50
2019-05-29T00:07:26.772Z,33.46
2019-05-29T00:09:59.262Z,33.46
2019-05-29T00:12:31.005Z,33.51
2019-05-29T00:15:02.549Z,33.46
2019-05-29T00:17:35.144Z,33.55
2019-05-29T00:20:06.877Z,33.50
2019-05-29T00:22:38.909Z,33.57
2019-05-29T00:25:10.910Z,33.55
2019-05-29T00:27:42.583Z,33.55
2019-05-29T00:30:15.007Z,33.59
2019-05-29T00:32:46.928Z,33.56
2019-05-29T00:35:18.593Z,33.77
2019-05-29T00:37:50.707Z,33.81
2019-05-29T00:40:22.182Z,33.85
2019-05-29T00:42:53.844Z,33.82
2019-05-29T00:45:25.294Z,34.02
2019-05-29T00:47:57.098Z,34.08
2019-05-29T00:50:29.087Z,34.12
2019-05-29T00:53:01.563Z,33.93
2019-05-29T00:55:33.186Z,33.98
2019-05-29T00:58:05.012Z,34.21
2019-05-29T01:00:36.306Z,34.61
2019-05-29T01:03:07.906Z,34.61
2019-05-29T01:05:39.347Z,34.47
2019-05-29T01:08:12.421Z,34.72
2019-05-29T01:10:43.989Z,34.76
2019-05-29T01:13:17.144Z,34.73
2019-05-29T01:15:49.443Z,34.80
2019-05-29T01:18:22.280Z,34.80
2019-05-29T01:20:54.545Z,35.10
2019-05-29T01:23:26.968Z,35.27
2019-05-29T01:25:58.732Z,35.52
2019-05-29T01:28:30.586Z,35.88
2019-05-29T01:31:02.242Z,35.88
2019-05-29T01:33:33.807Z,35.78
2019-05-29T01:36:05.752Z,35.99
2019-05-29T01:38:37.237Z,35.99
2019-05-29T01:41:08.876Z,35.97
2019-05-29T01:43:40.799Z,36.50
2019-05-29T01:46:12.217Z,36.50
2019-05-29T01:48:44.031Z,36.70
2019-05-29T01:51:15.637Z,36.99
2019-05-29T01:53:47.922Z,37.12
2019-05-29T01:56:19.844Z,37.12
2019-05-29T01:58:51.630Z,37.03
2019-05-29T02:01:24.003Z,37.33
2019-05-29T02:03:55.812Z,37.14
2019-05-29T02:06:28.219Z,37.09
2019-05-29T02:09:00.245Z,37.71
2019-05-29T02:11:32.311Z,37.71
2019-05-29T02:14:04.153Z,37.72
2019-05-29T02:16:35.889Z,37.95
2019-05-29T02:19:07.271Z,38.12
2019-05-29T02:21:39.210Z,37.98
2019-05-29T02:24:11.677Z,38.40
2019-05-29T02:26:43.218Z,38.17
2019-05-29T02:29:14.597Z,38.17
2019-05-29T02:31:46.326Z,38.11
2019-05-29T02:34:19.841Z,38.61
2019-05-29T02:36:51.393Z,38.61
2019-05-29T02:39:25.102Z,38.79
2019-05-29T02:41:57.018Z,38.78
2019-05-29T02:44:29.700Z,38.80
2019-05-29T02:47:01.241Z,38.20
2019-05-29T02:49:33.290Z,38.20
2019-05-29T02:52:04.898Z,38.69
2019-05-29T02:54:37.891Z,39.00
2019-05-29T02:57:09.571Z,38.51
2019-05-29T02:59:41.805Z,38.51
2019-05-29T03:02:13.599Z,38.61
2019-05-29T03:04:45.485Z,38.32
2019-05-29T03:07:17.209Z,38.95
2019-05-29T03:09:48.854Z,38.95
2019-05-29T03:12:20.466Z,39.15
2019-05-29T03:14:52.144Z,39.03
2019-05-29T03:17:25.632Z,39.03
2019-05-29T03:19:57.664Z,39.11
2019-05-29T03:22:31.411Z,39.66
2019-05-29T03:25:02.568Z,39.69
2019-05-29T03:27:34.179Z,39.23
2019-05-29T03:30:06.330Z,39.23
2019-05-29T03:32:46.716Z,38.86
2019-05-29T03:35:11.002Z,39.63
2019-05-29T03:37:42.742Z,39.60
2019-05-29T03:40:14.391Z,39.60
2019-05-29T03:42:46.060Z,40.16
2019-05-29T03:45:17.807Z,40.23
2019-05-29T03:47:49.627Z,39.82
2019-05-29T03:50:21.558Z,39.80
2019-05-29T03:52:53.340Z,40.03
2019-05-29T03:55:25.046Z,40.03
2019-05-29T03:57:57.797Z,39.71
2019-05-29T04:00:34.227Z,40.08
2019-05-29T04:03:03.665Z,39.97
2019-05-29T04:05:35.605Z,40.37
2019-05-29T04:08:07.853Z,40.18
2019-05-29T04:10:39.930Z,40.18
2019-05-29T04:13:11.935Z,40.48
2019-05-29T04:15:45.514Z,40.50
2019-05-29T04:18:19.852Z,40.31
2019-05-29T04:20:53.372Z,40.25
2019-05-29T04:23:29.854Z,40.25
2019-05-29T04:26:04.066Z,40.50
2019-05-29T04:28:37.311Z,40.50
2019-05-29T04:31:09.394Z,40.73
2019-05-29T04:33:41.248Z,40.64
2019-05-29T04:36:13.679Z,40.78
2019-05-29T04:38:45.337Z,40.93
2019-05-29T04:41:17.322Z,40.63
2019-05-29T04:43:48.788Z,40.77
2019-05-29T04:46:20.919Z,40.78
2019-05-29T04:48:53.155Z,40.98
2019-05-29T04:51:25.005Z,40.98
2019-05-29T04:53:56.512Z,40.96
2019-05-29T04:56:28.741Z,40.68
2019-05-29T04:59:01.559Z,40.45
2019-05-29T05:01:33.057Z,40.78
2019-05-29T05:04:04.880Z,40.97
2019-05-29T05:06:37.386Z,40.93
2019-05-29T05:09:09.592Z,40.98
2019-05-29T05:11:41.635Z,41.03
2019-05-29T05:14:13.223Z,41.03
2019-05-29T05:16:45.128Z,41.25
2019-05-29T05:19:17.251Z,41.31
2019-05-29T05:21:48.660Z,41.46
2019-05-29T05:24:20.105Z,41.44
2019-05-29T05:26:51.723Z,41.64
2019-05-29T05:29:23.622Z,41.64
2019-05-29T05:31:55.386Z,41.47
2019-05-29T05:34:27.291Z,41.46
2019-05-29T05:36:58.809Z,41.46
2019-05-29T05:39:30.830Z,41.23
2019-05-29T05:42:02.421Z,41.44
2019-05-29T05:44:34.881Z,41.63
2019-05-29T05:47:06.798Z,41.66
2019-05-29T05:49:39.528Z,41.66
2019-05-29T05:52:13.746Z,41.27
2019-05-29T05:54:45.069Z,41.31
2019-05-29T05:57:16.859Z,41.31
2019-05-29T05:59:48.553Z,41.24
2019-05-29T06:02:21.203Z,41.33
2019-05-29T06:04:53.095Z,41.50
2019-05-29T06:07:24.895Z,41.50
2019-05-29T06:09:56.791Z,41.50
2019-05-29T06:12:28.619Z,41.19
2019-05-29T06:15:00.366Z,41.00
2019-05-29T06:17:32.335Z,41.65
2019-05-29T06:20:04.109Z,41.56
2019-05-29T06:22:36.918Z,41.64
2019-05-29T06:25:09.260Z,41.68
2019-05-29T06:27:43.208Z,41.68
2019-05-29T06:30:15.285Z,41.90
2019-05-29T06:32:46.615Z,41.91
2019-05-29T06:35:18.699Z,42.13
2019-05-29T06:37:50.102Z,42.00
2019-05-29T06:40:33.946Z,42.17
2019-05-29T06:43:06.616Z,42.17
2019-05-29T06:45:39.977Z,42.02
2019-05-29T06:48:15.305Z,41.87
2019-05-29T06:50:47.636Z,42.08
2019-05-29T06:53:19.741Z,41.56
2019-05-29T06:55:53.840Z,41.63
2019-05-29T06:58:25.620Z,41.63
2019-05-29T07:00:57.847Z,42.09
2019-05-29T07:03:29.838Z,42.09
2019-05-29T07:06:01.431Z,42.33
2019-05-29T07:08:38.846Z,42.34
2019-05-29T07:11:07.189Z,41.57
2019-05-29T07:13:41.769Z,41.94
2019-05-29T07:16:12.321Z,41.42
2019-05-29T07:19:20.522Z,41.71
2019-05-29T07:21:18.875Z,41.97
2019-05-29T07:23:50.424Z,41.97
2019-05-29T07:26:22.381Z,42.28
2019-05-29T07:29:06.639Z,42.41
2019-05-29T07:31:28.439Z,42.41
2019-05-29T07:34:00.773Z,42.49
2019-05-29T07:36:32.914Z,42.37
2019-05-29T07:39:06.663Z,42.37
2019-05-29T07:41:39.466Z,42.49
2019-05-29T07:44:11.478Z,42.49
2019-05-29T07:46:45.302Z,42.26
2019-05-29T07:49:17.757Z,42.26
2019-05-29T07:51:49.720Z,42.77
2019-05-29T07:54:21.495Z,42.63
2019-05-29T07:56:53.593Z,42.42
2019-05-29T07:59:28.681Z,42.49
2019-05-29T08:02:02.713Z,42.45
2019-05-29T08:04:34.598Z,42.62
2019-05-29T08:07:06.387Z,42.60
2019-05-29T08:09:39.241Z,42.59
2019-05-29T08:12:11.392Z,42.59
2019-05-29T08:14:43.753Z,42.12
2019-05-29T08:17:17.159Z,42.48
2019-05-29T08:20:03.154Z,42.48
2019-05-29T08:22:33.763Z,42.75
2019-05-29T08:24:55.931Z,42.60
2019-05-29T08:27:27.343Z,42.71
2019-05-29T08:29:59.413Z,42.45
2019-05-29T08:32:30.886Z,42.49
2019-05-29T08:35:02.552Z,42.60
2019-05-29T08:37:34.154Z,42.63
2019-05-29T08:40:06.556Z,42.93
2019-05-29T08:42:38.484Z,42.66
2019-05-29T08:45:12.268Z,43.06
2019-05-29T08:47:45.519Z,42.43
2019-05-29T08:50:19.179Z,42.43
2019-05-29T08:52:52.194Z,42.87
2019-05-29T08:55:23.993Z,42.87
2019-05-29T08:57:55.871Z,42.50
2019-05-29T09:00:27.779Z,42.97
2019-05-29T09:02:59.756Z,42.31
2019-05-29T09:05:31.233Z,42.57
2019-05-29T09:08:03.009Z,42.42
2019-05-29T09:10:34.759Z,42.42
2019-05-29T09:13:06.635Z,42.69
2019-05-29T09:15:38.374Z,42.40
2019-05-29T09:18:10.679Z,42.40
2019-05-29T09:21:01.048Z,42.81
2019-05-29T09:23:16.908Z,42.96
2019-05-29T09:25:48.599Z,42.96
2019-05-29T09:28:20.041Z,42.57
2019-05-29T09:30:50.831Z,42.83
2019-05-29T09:33:23.541Z,42.62
2019-05-29T09:35:56.721Z,42.62
2019-05-29T09:38:28.577Z,42.87
2019-05-29T09:41:01.166Z,42.87
2019-05-29T09:43:33.386Z,42.50
2019-05-29T09:46:06.284Z,42.37
2019-05-29T09:48:49.103Z,42.37
2019-05-29T09:51:21.186Z,42.63
2019-05-29T09:53:46.826Z,42.27
2019-05-29T09:56:19.286Z,42.27
2019-05-29T09:58:53.703Z,42.39
2019-05-29T10:01:25.911Z,42.78
2019-05-29T10:04:00.013Z,43.00
2019-05-29T10:06:32.113Z,42.98
2019-05-29T10:09:04.705Z,42.92
2019-05-29T10:11:36.677Z,42.69
2019-05-29T10:14:08.863Z,42.62
2019-05-29T10:16:40.552Z,42.62
2019-05-29T10:19:13.792Z,42.81
2019-05-29T10:21:45.572Z,42.81
2019-05-29T10:24:17.347Z,42.98
2019-05-29T10:26:49.395Z,42.98
2019-05-29T10:29:21.115Z,43.02
2019-05-29T10:31:53.408Z,42.89
2019-05-29T10:34:25.629Z,42.66
2019-05-29T10:36:58.094Z,42.52
2019-05-29T10:39:30.280Z,42.52
2019-05-29T10:42:03.489Z,42.71
2019-05-29T10:44:35.813Z,42.71
2019-05-29T10:47:07.883Z,43.02
2019-05-29T10:49:43.437Z,42.98
2019-05-29T10:52:17.541Z,42.79
2019-05-29T10:54:50.188Z,42.69
2019-05-29T10:57:24.731Z,42.74
2019-05-29T10:59:56.594Z,42.79
2019-05-29T11:02:28.147Z,42.84
2019-05-29T11:05:01.093Z,42.84
2019-05-29T11:07:36.503Z,42.84
2019-05-29T11:10:08.990Z,42.76
2019-05-29T11:12:41.096Z,42.78
2019-05-29T11:15:21.418Z,42.43
2019-05-29T11:17:47.176Z,42.55
2019-05-29T11:20:20.711Z,42.67
2019-05-29T11:22:53.571Z,42.67
2019-05-29T11:25:27.672Z,42.48
2019-05-29T11:27:58.938Z,42.24
2019-05-29T11:30:33.366Z,42.52
2019-05-29T11:33:04.363Z,42.53
2019-05-29T11:35:36.110Z,42.12
2019-05-29T11:38:07.483Z,42.42
2019-05-29T11:40:39.089Z,42.40
2019-05-29T11:43:10.733Z,42.54
2019-05-29T11:45:42.515Z,42.40
2019-05-29T11:48:14.001Z,42.18
2019-05-29T11:50:45.708Z,41.82
2019-05-29T11:53:17.627Z,41.82
2019-05-29T11:55:49.396Z,42.18
2019-05-29T11:58:30.566Z,42.18
2019-05-29T12:00:55.044Z,42.49
2019-05-29T12:03:28.413Z,42.10
2019-05-29T12:05:59.928Z,42.23
2019-05-29T12:08:31.744Z,42.23
2019-05-29T12:11:07.015Z,42.32
2019-05-29T12:13:38.307Z,42.29
2019-05-29T12:16:10.054Z,42.29
2019-05-29T12:18:42.392Z,42.24
2019-05-29T12:21:14.071Z,42.31
2019-05-29T12:23:45.827Z,42.32
2019-05-29T12:26:46.714Z,42.32
2019-05-29T12:29:23.549Z,42.12
2019-05-29T12:31:55.267Z,42.12
2019-05-29T12:34:34.056Z,42.24
2019-05-29T12:37:06.219Z,42.24
2019-05-29T12:39:38.182Z,42.27
2019-05-29T12:42:09.662Z,42.07
2019-05-29T12:44:41.238Z,42.12
2019-05-29T12:47:12.936Z,42.12
2019-05-29T12:49:44.367Z,42.21
2019-05-29T12:52:16.493Z,42.16
2019-05-29T12:54:48.551Z,41.78
2019-05-29T12:57:23.442Z,41.78
2019-05-29T12:59:54.029Z,41.68
2019-05-29T13:02:25.959Z,41.64
2019-05-29T13:05:09.423Z,41.57
2019-05-29T13:07:30.997Z,41.45
2019-05-29T13:10:02.812Z,41.36
2019-05-29T13:12:34.466Z,41.36
2019-05-29T13:15:07.089Z,41.29
2019-05-29T13:17:38.697Z,41.07
2019-05-29T13:20:20.973Z,41.07
2019-05-29T13:22:44.756Z,41.03
2019-05-29T13:25:17.811Z,41.03
2019-05-29T13:27:50.191Z,40.95
2019-05-29T13:30:40.190Z,40.46
2019-05-29T13:33:12.080Z,40.46
2019-05-29T13:35:43.542Z,40.41
2019-05-29T13:38:15.283Z,40.22
2019-05-29T13:40:47.286Z,40.07
2019-05-29T13:43:19.091Z,39.99
2019-05-29T13:45:50.693Z,39.95
2019-05-29T13:48:23.523Z,39.97
2019-05-29T13:50:55.285Z,39.90
2019-05-29T13:53:26.988Z,39.75
2019-05-29T13:55:59.823Z,39.75
2019-05-29T13:58:31.251Z,39.69
2019-05-29T14:01:04.180Z,39.62
2019-05-29T14:03:41.667Z,39.38
2019-05-29T14:06:13.215Z,39.29
2019-05-29T14:08:44.467Z,39.14
2019-05-29T14:11:16.237Z,37.87
2019-05-29T14:13:47.486Z,35.98
2019-05-29T14:16:19.288Z,35.54
2019-05-29T14:18:50.875Z,35.42
2019-05-29T14:21:22.725Z,35.26
2019-05-29T14:23:54.102Z,35.31
2019-05-29T14:26:26.548Z,35.85
2019-05-29T14:28:57.999Z,36.97
2019-05-29T14:31:29.783Z,37.23
2019-05-29T14:34:01.475Z,37.37
2019-05-29T14:36:34.153Z,37.31
2019-05-29T14:39:07.597Z,37.29
2019-05-29T14:41:39.289Z,37.63
2019-05-29T14:44:10.583Z,38.33
2019-05-29T14:46:43.554Z,38.46
2019-05-29T14:49:14.986Z,38.58
2019-05-29T14:51:46.924Z,38.53
2019-05-29T14:54:18.621Z,38.53
2019-05-29T14:56:51.003Z,38.51
2019-05-29T14:59:22.682Z,38.48
2019-05-29T15:01:55.065Z,38.47
2019-05-29T15:04:26.239Z,38.54
2019-05-29T15:06:57.344Z,38.42
2019-05-29T15:09:28.493Z,38.50
2019-05-29T15:11:59.918Z,38.52
2019-05-29T15:14:31.771Z,38.28
2019-05-29T15:17:04.904Z,38.28
2019-05-29T15:19:36.345Z,38.38
2019-05-29T15:22:09.211Z,38.23
2019-05-29T15:24:58.858Z,38.23
2019-05-29T15:27:14.176Z,38.20
2019-05-29T15:29:45.588Z,38.11
2019-05-29T15:32:17.075Z,38.11
2019-05-29T15:34:48.846Z,38.03
2019-05-29T15:37:20.664Z,38.00
2019-05-29T15:39:52.012Z,37.98
2019-05-29T15:42:24.018Z,37.93
2019-05-29T15:44:55.894Z,37.93
2019-05-29T15:47:27.601Z,37.93
2019-05-29T15:49:59.258Z,37.93
2019-05-29T15:52:31.608Z,37.98
2019-05-29T15:55:20.104Z,38.10
2019-05-29T15:57:36.940Z,38.79
2019-05-29T16:00:09.189Z,38.87
2019-05-29T16:02:42.979Z,38.87
2019-05-29T16:05:15.441Z,38.74
2019-05-29T16:07:47.667Z,38.59
2019-05-29T16:10:21.163Z,38.59
2019-05-29T16:12:54.211Z,38.55
2019-05-29T16:15:26.540Z,38.62
2019-05-29T16:17:58.151Z,38.70
2019-05-29T16:20:30.020Z,38.70
2019-05-29T16:23:01.718Z,38.65
2019-05-29T16:25:39.992Z,38.74
2019-05-29T16:28:07.399Z,38.71
2019-05-29T16:30:38.674Z,38.71
2019-05-29T16:33:10.886Z,38.52
2019-05-29T16:35:42.180Z,38.57
2019-05-29T16:38:14.175Z,38.57
2019-05-29T16:40:47.817Z,38.62
2019-05-29T16:43:20.146Z,38.62
2019-05-29T16:45:52.042Z,38.52
2019-05-29T16:48:24.039Z,38.52
2019-05-29T16:50:55.448Z,38.48
2019-05-29T16:53:26.878Z,38.48
2019-05-29T16:55:58.808Z,38.48
2019-05-29T16:58:30.761Z,38.42
2019-05-29T17:01:02.417Z,38.32
2019-05-29T17:03:34.669Z,38.32
2019-05-29T17:06:07.764Z,38.03
2019-05-29T17:08:39.433Z,38.03
2019-05-29T17:11:11.018Z,37.89
2019-05-29T17:13:42.776Z,37.94
2019-05-29T17:16:14.649Z,38.04
2019-05-29T17:18:46.925Z,37.62
2019-05-29T17:21:18.642Z,37.44
2019-05-29T17:23:50.385Z,37.38
2019-05-29T17:26:22.754Z,37.32
2019-05-29T17:28:54.925Z,37.32
2019-05-29T17:31:27.474Z,37.31
2019-05-29T17:33:59.287Z,37.33
2019-05-29T17:36:30.776Z,37.22
2019-05-29T17:39:03.520Z,37.22
2019-05-29T17:41:36.154Z,37.19
2019-05-29T17:44:08.035Z,37.21
2019-05-29T17:46:39.545Z,37.25
2019-05-29T17:49:11.323Z,37.23
2019-05-29T17:51:43.002Z,37.21
2019-05-29T17:54:15.705Z,37.10
2019-05-29T17:56:47.281Z,37.10
2019-05-29T17:59:20.115Z,37.01
2019-05-29T18:01:51.815Z,37.02
2019-05-29T18:04:24.821Z,37.09
2019-05-29T18:06:56.716Z,37.13
2019-05-29T18:09:29.337Z,37.00
2019-05-29T18:12:01.147Z,36.99
2019-05-29T18:14:34.416Z,36.92
2019-05-29T18:17:06.110Z,36.89
2019-05-29T18:19:38.129Z,36.93
2019-05-29T18:22:09.581Z,36.80
2019-05-29T18:24:41.157Z,36.86
2019-05-29T18:27:12.802Z,36.86
2019-05-29T18:29:44.858Z,36.73
2019-05-29T18:32:16.748Z,36.70
2019-05-29T18:34:52.362Z,36.63
2019-05-29T18:37:22.047Z,36.76
2019-05-29T18:39:53.420Z,36.76
2019-05-29T18:42:25.656Z,36.79
2019-05-29T18:44:57.495Z,36.67
2019-05-29T18:47:30.250Z,36.67
2019-05-29T18:50:02.048Z,36.70
2019-05-29T18:52:33.526Z,36.80
2019-05-29T18:55:05.528Z,36.71
2019-05-29T18:57:37.273Z,36.65
2019-05-29T19:00:09.510Z,36.65
2019-05-29T19:02:40.982Z,36.88
2019-05-29T19:05:13.384Z,36.88
2019-05-29T19:07:44.715Z,36.86
2019-05-29T19:10:16.474Z,36.82
2019-05-29T19:12:48.142Z,36.75
2019-05-29T19:15:20.084Z,36.75
2019-05-29T19:17:51.941Z,36.70
2019-05-29T19:20:24.318Z,36.53
2019-05-29T19:22:55.866Z,36.46
2019-05-29T19:25:28.907Z,36.47
2019-05-29T19:28:00.637Z,36.38
2019-05-29T19:30:33.022Z,36.37
2019-05-29T19:33:04.746Z,36.36
2019-05-29T19:35:37.851Z,36.37
2019-05-29T19:38:11.139Z,36.34
2019-05-29T19:40:42.603Z,36.28
2019-05-29T19:43:14.389Z,36.28
2019-05-29T19:45:47.833Z,36.34
2019-05-29T19:48:19.603Z,36.26
2019-05-29T19:50:51.648Z,36.23
2019-05-29T19:53:25.213Z,36.21
2019-05-29T19:55:56.759Z,36.17
2019-05-29T19:58:30.234Z,36.22
2019-05-29T20:01:02.810Z,36.20
2019-05-29T20:03:34.745Z,36.20
2019-05-29T20:06:06.770Z,36.21
2019-05-29T20:08:39.693Z,36.16
2019-05-29T20:11:11.774Z,36.12
2019-05-29T20:13:43.483Z,36.11
2019-05-29T20:16:15.557Z,36.11
2019-05-29T20:18:46.961Z,36.08
2019-05-29T20:21:18.680Z,36.11
2019-05-29T20:23:50.118Z,36.11
2019-05-29T20:26:21.752Z,36.11
2019-05-29T20:28:53.393Z,36.21
2019-05-29T20:31:25.444Z,36.15
2019-05-29T20:33:56.931Z,36.10
2019-05-29T20:36:28.721Z,36.07
2019-05-29T20:39:00.311Z,36.02
2019-05-29T20:41:34.099Z,36.01
2019-05-29T20:44:05.335Z,36.00
2019-05-29T20:46:38.436Z,36.13
2019-05-29T20:49:10.541Z,36.13
2019-05-29T20:51:42.294Z,36.13
2019-05-29T20:54:14.061Z,36.13
2019-05-29T20:56:49.020Z,36.28
2019-05-29T20:59:20.565Z,36.28
2019-05-29T21:01:52.446Z,36.25
2019-05-29T21:04:23.861Z,36.24
2019-05-29T21:06:55.683Z,36.42
2019-05-29T21:09:27.145Z,36.22
2019-05-29T21:11:58.545Z,36.26
2019-05-29T21:14:30.317Z,36.30
2019-05-29T21:17:02.227Z,36.16
2019-05-29T21:19:33.983Z,36.17
2019-05-29T21:22:05.802Z,36.14
2019-05-29T21:24:38.504Z,35.85
2019-05-29T21:27:10.410Z,36.04
2019-05-29T21:29:45.423Z,36.14
2019-05-29T21:32:17.097Z,36.18
2019-05-29T21:34:48.805Z,36.28
2019-05-29T21:37:20.510Z,36.17
2019-05-29T21:39:52.156Z,36.09
2019-05-29T21:42:24.247Z,36.09
2019-05-29T21:44:55.947Z,36.09
2019-05-29T21:47:27.519Z,36.08
2019-05-29T21:49:59.339Z,35.93
2019-05-29T21:52:31.274Z,35.93
2019-05-29T21:55:03.204Z,35.88
2019-05-29T21:57:34.776Z,35.73
2019-05-29T22:00:11.181Z,35.73
2019-05-29T22:02:44.751Z,35.67
2019-05-29T22:05:16.387Z,35.62
2019-05-29T22:07:48.946Z,35.62
2019-05-29T22:10:20.633Z,35.68
2019-05-29T22:12:54.117Z,35.60
2019-05-29T22:15:26.337Z,35.56
2019-05-29T22:17:59.212Z,35.56
2019-05-29T22:20:31.066Z,35.54
2019-05-29T22:23:03.064Z,35.44
2019-05-29T22:25:34.884Z,35.35
2019-05-29T22:28:06.637Z,35.29
2019-05-29T22:30:39.261Z,35.08
2019-05-29T22:33:10.816Z,35.15
2019-05-29T22:35:42.352Z,35.15
2019-05-29T22:38:14.055Z,35.06
2019-05-29T22:40:45.575Z,35.02
2019-05-29T22:43:17.684Z,35.21
2019-05-29T22:45:49.599Z,35.21
2019-05-29T22:48:21.046Z,35.17
2019-05-29T22:50:53.713Z,35.26
2019-05-29T22:53:25.872Z,35.18
2019-05-29T22:55:57.874Z,35.14
2019-05-29T22:58:29.864Z,35.09
2019-05-29T23:01:02.258Z,34.99
2019-05-29T23:03:35.317Z,34.99
2019-05-29T23:06:06.831Z,35.05
2019-05-29T23:08:40.777Z,35.16
2019-05-29T23:11:12.229Z,35.16
2019-05-29T23:13:44.788Z,34.96
2019-05-29T23:16:17.372Z,34.92
2019-05-29T23:18:48.940Z,34.92
2019-05-29T23:21:20.644Z,34.89
2019-05-29T23:23:53.319Z,34.74
2019-05-29T23:26:24.824Z,34.80
2019-05-29T23:28:56.859Z,34.71
2019-05-29T23:31:28.290Z,34.65
2019-05-29T23:34:01.051Z,34.59
2019-05-29T23:36:32.472Z,34.61
2019-05-29T23:39:05.472Z,34.64
2019-05-29T23:41:36.917Z,34.73
2019-05-29T23:44:08.551Z,34.62
2019-05-29T23:46:39.998Z,34.59
2019-05-29T23:49:11.509Z,34.62
2019-05-29T23:51:42.905Z,34.41
2019-05-29T23:54:14.689Z,34.41
2019-05-29T23:56:46.367Z,34.50
2019-05-29T23:59:18.010Z,34.47
